Return to the overview of this dataset or to the list of all FOR816 datasets.


Value filter for entity: Microclimate(id: 415) of dataset: Forest microclimate ECSF tree T117a understorey (z1) (dsid: 619)

Select attribute to work with:



Order by

Aggregate by date/time

on attribute:

Draw graph of subset

    x     y1     y2  
     
Ta_2m (air temperature in 2m)
Huma_2m (Air humidity 2m)
datetime (Date and Time)

Results:

page: 1 / 90 , page size: , max results: 4458

Ta_2m Huma_2m datetime
15.54 100.6 2004-07-02 17:30:00
15.09 101.2 2004-07-02 18:00:00
14.83 101.5 2004-07-02 18:30:00
14.66 101.5 2004-07-02 19:00:00
14.59 101.8 2004-07-02 19:30:00
14.54 102.1 2004-07-02 20:00:00
14.49 102.1 2004-07-02 20:30:00
14.32 101.8 2004-07-02 21:00:00
14.2 101.8 2004-07-02 21:30:00
14.06 102.1 2004-07-02 22:00:00
13.96 102.1 2004-07-02 22:30:00
13.8 101.8 2004-07-02 23:00:00
13.68 102.1 2004-07-02 23:30:00
13.68 102.1 2004-07-03 00:00:00
13.56 102.1 2004-07-03 00:30:00
13.56 102.1 2004-07-03 01:00:00
13.51 101.8 2004-07-03 01:30:00
13.51 102.1 2004-07-03 02:00:00
13.46 102.1 2004-07-03 02:30:00
13.48 102.1 2004-07-03 03:00:00
13.39 102.1 2004-07-03 03:30:00
13.44 102.1 2004-07-03 04:00:00
13.41 101.8 2004-07-03 04:30:00
13.36 102.1 2004-07-03 05:00:00
13.44 101.8 2004-07-03 05:30:00
13.39 102.1 2004-07-03 06:00:00
13.34 102.1 2004-07-03 06:30:00
13.34 102.1 2004-07-03 07:00:00
13.39 102.1 2004-07-03 07:30:00
13.63 102.1 2004-07-03 08:00:00
13.72 102.1 2004-07-03 08:30:00
13.89 101.8 2004-07-03 09:00:00
14.18 102.1 2004-07-03 09:30:00
14.56 101.5 2004-07-03 10:00:00
15.09 101.8 2004-07-03 10:30:00
15.28 100.9 2004-07-03 11:00:00
15.4 99.2 2004-07-03 11:30:00
16.19 92.6 2004-07-03 12:00:00
15.95 96.0 2004-07-03 12:30:00
15.9 97.8 2004-07-03 13:00:00
16.81 91.4 2004-07-03 13:30:00
17.24 92.2 2004-07-03 14:00:00
18.5 81.3 2004-07-03 14:30:00
19.21 79.9 2004-07-03 15:00:00
17.81 87.2 2004-07-03 15:30:00
17.28 87.2 2004-07-03 16:00:00
16.9 91.4 2004-07-03 16:30:00
16.4 96.0 2004-07-03 17:00:00
16.07 96.0 2004-07-03 17:30:00
15.83 98.2 2004-07-03 18:00:00

page: 1 / 90 , max results: 4458


Return to the overview of this dataset or to the list of all FOR816 datasets.



Quick search

  • Publications:
  • Datasets: